Time;durP1;ratioP1;P1;durP2;ratioP2;P2;SDS_P1;SDS_P2;PMS_P1;PMS_P2;Temp;Humidity;BMP_temperature;BMP_pressure;BME280_temperature;BME280_humidity;BME280_pressure;Samples;Min_cycle;Max_cycle;Signal;HPM_P1;HPM_P2
2023/07/27 00:00:57;;;;;;;11.20;7.97;;;;;;;13.35;100.00;98048.72;5031496;28;20238;-82
2023/07/27 00:03:23;;;;;;;9.80;5.97;;;;;;;13.40;100.00;98058.94;5032404;28;20584;-82
2023/07/27 00:05:51;;;;;;;9.57;5.63;;;;;;;13.46;100.00;98042.53;5032326;28;20593;-82
2023/07/27 00:08:17;;;;;;;6.33;4.97;;;;;;;13.52;100.00;98047.31;5032160;28;20220;-82
2023/07/27 00:10:44;;;;;;;6.37;4.83;;;;;;;13.58;100.00;98046.81;5031148;28;20248;-82
2023/07/27 00:13:10;;;;;;;6.37;4.80;;;;;;;13.64;100.00;98043.66;5031959;28;20717;-84
2023/07/27 00:15:37;;;;;;;6.07;4.50;;;;;;;13.66;100.00;98044.38;5031863;28;20577;-82
2023/07/27 00:18:03;;;;;;;6.07;4.60;;;;;;;13.68;100.00;98037.13;5031785;28;20227;-82
2023/07/27 00:20:30;;;;;;;6.00;4.60;;;;;;;13.66;100.00;98042.56;5030984;28;20236;-82
2023/07/27 00:22:58;;;;;;;5.93;4.47;;;;;;;13.69;100.00;98041.47;5031907;28;20221;-84
2023/07/27 00:25:24;;;;;;;7.20;4.40;;;;;;;13.73;100.00;98037.56;5031754;28;20215;-83
2023/07/27 00:27:51;;;;;;;5.37;4.17;;;;;;;13.73;100.00;98030.47;5031685;28;20214;-84
2023/07/27 00:30:17;;;;;;;8.60;4.73;;;;;;;13.81;100.00;98022.69;5030637;28;20240;-83
2023/07/27 00:32:44;;;;;;;5.60;4.40;;;;;;;13.80;100.00;98025.47;5031207;28;20228;-83
2023/07/27 00:35:10;;;;;;;5.60;4.43;;;;;;;13.79;100.00;98023.78;5031867;28;20226;-82
2023/07/27 00:37:37;;;;;;;4.80;4.30;;;;;;;13.77;100.00;98017.75;5031857;28;20216;-82
2023/07/27 00:40:06;;;;;;;6.63;4.40;;;;;;;13.82;100.00;98012.91;5030766;28;20234;-82
2023/07/27 00:42:32;;;;;;;6.37;4.40;;;;;;;13.79;100.00;98015.81;5031333;28;20264;-83
2023/07/27 00:44:59;;;;;;;7.23;4.23;;;;;;;13.80;100.00;98009.53;5031864;28;20291;-82
2023/07/27 00:47:25;;;;;;;5.40;3.67;;;;;;;13.79;100.00;98010.50;5031487;28;20238;-82
2023/07/27 00:49:52;;;;;;;5.00;3.93;;;;;;;13.74;100.00;98015.38;5030624;28;20236;-82
2023/07/27 00:52:19;;;;;;;5.93;4.07;;;;;;;13.72;100.00;98004.03;5031526;28;20208;-82
2023/07/27 00:54:45;;;;;;;4.30;3.90;;;;;;;13.64;100.00;98004.66;5031334;28;20213;-83
2023/07/27 00:57:13;;;;;;;5.20;3.63;;;;;;;13.65;100.00;98005.50;5031087;28;20218;-82
2023/07/27 00:59:40;;;;;;;5.63;4.00;;;;;;;13.57;100.00;98002.66;5027064;28;20713;-82
2023/07/27 01:02:07;;;;;;;6.17;4.20;;;;;;;13.59;100.00;97995.41;5031185;28;20576;-83
2023/07/27 01:04:34;;;;;;;5.47;3.67;;;;;;;13.53;100.00;97995.91;5031259;28;20235;-83
2023/07/27 01:07:01;;;;;;;5.20;3.70;;;;;;;13.48;100.00;97998.09;5030965;28;20218;-83
2023/07/27 01:09:27;;;;;;;4.80;3.63;;;;;;;13.44;100.00;97996.69;5030137;28;20337;-82
2023/07/27 01:12:10;;;;;;;5.10;4.03;;;;;;;13.33;100.00;97988.75;5030945;28;20238;-83
2023/07/27 01:14:44;;;;;;;5.50;3.90;;;;;;;13.25;100.00;97989.38;5031133;28;20215;-83
2023/07/27 01:17:18;;;;;;;4.67;3.67;;;;;;;13.22;100.00;97983.47;5031235;28;20449;-83
2023/07/27 01:20:10;;;;;;;5.40;3.50;;;;;;;13.14;100.00;97991.22;5030119;28;20230;-83
2023/07/27 01:23:13;;;;;;;5.47;3.47;;;;;;;13.11;100.00;97984.38;5030843;28;20233;-83
2023/07/27 01:25:54;;;;;;;4.67;3.80;;;;;;;13.09;100.00;97970.34;5030432;28;20592;-82
2023/07/27 01:28:36;;;;;;;5.07;3.70;;;;;;;13.08;100.00;97973.16;5031011;28;20233;-82
2023/07/27 01:31:09;;;;;;;6.00;3.63;;;;;;;13.12;100.00;97964.81;5029936;28;20243;-83
2023/07/27 01:33:42;;;;;;;4.90;4.10;;;;;;;13.12;100.00;97966.63;5030923;28;20211;-83
2023/07/27 01:36:11;;;;;;;4.73;3.87;;;;;;;13.12;100.00;97961.31;5031264;28;20200;-83
2023/07/27 01:38:42;;;;;;;5.80;3.97;;;;;;;13.09;100.00;97957.09;5030875;28;20280;-83
2023/07/27 01:41:10;;;;;;;4.03;3.50;;;;;;;13.12;100.00;97954.19;5030619;28;20588;-82
2023/07/27 01:43:37;;;;;;;5.03;3.70;;;;;;;13.09;100.00;97959.75;5033876;28;20208;-82
2023/07/27 01:46:06;;;;;;;4.83;3.43;;;;;;;13.07;100.00;97956.38;5034990;28;20478;-82
2023/07/27 01:48:34;;;;;;;4.37;3.47;;;;;;;13.06;100.00;97948.53;5034584;28;20222;-82
2023/07/27 01:51:02;;;;;;;4.13;3.57;;;;;;;13.02;100.00;97947.13;5033899;28;20246;-83
2023/07/27 01:53:30;;;;;;;5.00;3.83;;;;;;;12.99;100.00;97952.66;5034474;28;20211;-82
2023/07/27 01:55:59;;;;;;;5.60;4.33;;;;;;;12.97;100.00;97950.13;5034645;28;20700;-83
2023/07/27 01:58:26;;;;;;;5.00;3.70;;;;;;;12.95;100.00;97940.63;5034855;28;20212;-83
2023/07/27 02:00:55;;;;;;;4.50;3.50;;;;;;;12.95;100.00;97937.97;5033956;28;20609;-83
2023/07/27 02:03:23;;;;;;;5.67;3.90;;;;;;;12.91;100.00;97939.16;5034353;28;20401;-83
2023/07/27 02:05:49;;;;;;;4.43;3.67;;;;;;;12.92;100.00;97935.53;5034394;28;20218;-83
2023/07/27 02:08:16;;;;;;;4.63;3.90;;;;;;;12.89;100.00;97941.94;5034611;28;20222;-83
2023/07/27 02:10:43;;;;;;;4.40;3.63;;;;;;;12.90;100.00;97938.31;5033417;28;20249;-85
2023/07/27 02:13:15;;;;;;;4.63;3.50;;;;;;;12.86;100.00;97933.38;5034387;28;20202;-81
2023/07/27 02:15:46;;;;;;;4.47;3.40;;;;;;;12.83;100.00;97933.66;5034323;28;20226;-81
2023/07/27 02:18:17;;;;;;;3.90;3.50;;;;;;;12.79;100.00;97924.25;5034290;28;20227;-81
2023/07/27 02:20:45;;;;;;;6.70;4.00;;;;;;;12.79;100.00;97922.44;5033219;28;20236;-81
2023/07/27 02:23:14;;;;;;;4.57;3.90;;;;;;;12.78;100.00;97922.56;5034095;28;20236;-80
2023/07/27 02:25:41;;;;;;;4.37;3.70;;;;;;;12.76;100.00;97921.81;5033955;28;20213;-81
2023/07/27 02:28:09;;;;;;;4.60;3.80;;;;;;;12.77;100.00;97920.88;5034115;28;20218;-80
2023/07/27 02:30:36;;;;;;;5.70;3.53;;;;;;;12.76;100.00;97908.56;5033409;28;20230;-80
2023/07/27 02:33:02;;;;;;;4.07;3.57;;;;;;;12.82;100.00;97916.03;5033871;28;20207;-81
2023/07/27 02:35:29;;;;;;;4.40;3.70;;;;;;;12.79;100.00;97908.34;5033848;28;20208;-81
2023/07/27 02:37:57;;;;;;;4.33;3.47;;;;;;;12.79;100.00;97906.53;5034019;28;20321;-81
2023/07/27 02:40:23;;;;;;;3.90;3.47;;;;;;;12.78;100.00;97906.66;5033234;28;20255;-81
2023/07/27 02:42:50;;;;;;;5.37;3.67;;;;;;;12.78;100.00;97904.00;5033840;28;20235;-81
2023/07/27 02:45:16;;;;;;;4.33;3.43;;;;;;;12.80;100.00;97904.72;5033754;28;20214;-81
2023/07/27 02:47:43;;;;;;;4.37;3.37;;;;;;;12.89;100.00;97893.38;5033891;28;20216;-81
2023/07/27 02:50:10;;;;;;;5.23;3.37;;;;;;;12.92;100.00;97893.94;5033169;28;20230;-81
2023/07/27 02:52:36;;;;;;;4.40;3.80;;;;;;;12.97;100.00;97896.25;5033819;28;20206;-80
2023/07/27 02:55:05;;;;;;;4.70;3.33;;;;;;;12.99;100.00;97899.59;5032928;28;20561;-81
2023/07/27 02:57:32;;;;;;;4.40;3.83;;;;;;;13.03;100.00;97895.75;5033576;28;20242;-81
2023/07/27 02:59:58;;;;;;;4.77;3.60;;;;;;;13.05;100.00;97893.81;5032529;28;20231;-81
2023/07/27 03:02:25;;;;;;;4.87;3.40;;;;;;;13.10;100.00;97892.47;5033537;28;20237;-81
2023/07/27 03:04:51;;;;;;;5.10;3.00;;;;;;;13.11;100.00;97891.50;5033564;28;20215;-80
2023/07/27 03:07:18;;;;;;;4.20;3.40;;;;;;;13.16;100.00;97888.44;5033506;28;20210;-81
2023/07/27 03:09:44;;;;;;;4.63;3.50;;;;;;;13.17;100.00;97884.81;5032569;28;20252;-78
2023/07/27 03:12:13;;;;;;;4.00;3.20;;;;;;;13.19;100.00;97890.84;5033401;28;20418;-81
2023/07/27 03:14:39;;;;;;;4.90;3.33;;;;;;;13.25;100.00;97890.31;5033036;28;20223;-81
2023/07/27 03:17:07;;;;;;;4.00;3.57;;;;;;;13.25;100.00;97890.31;5033484;28;20211;-81
2023/07/27 03:19:33;;;;;;;4.77;3.07;;;;;;;13.28;100.00;97890.09;5032451;28;20233;-81
2023/07/27 03:22:00;;;;;;;3.50;3.20;;;;;;;13.31;100.00;97889.81;5033008;28;20236;-81
2023/07/27 03:24:26;;;;;;;4.47;3.50;;;;;;;13.37;100.00;97889.28;5032987;28;20659;-81
2023/07/27 03:26:53;;;;;;;3.50;2.97;;;;;;;13.41;100.00;97886.28;5032980;28;20216;-81
2023/07/27 03:29:20;;;;;;;4.77;3.80;;;;;;;13.44;100.00;97891.31;5032035;28;20739;-81
2023/07/27 03:31:47;;;;;;;5.17;3.20;;;;;;;13.49;100.00;97882.94;5032696;28;20220;-81
2023/07/27 03:34:13;;;;;;;4.63;3.33;;;;;;;13.51;100.00;97891.66;5033148;28;20212;-80
2023/07/27 03:36:40;;;;;;;3.97;3.17;;;;;;;13.52;100.00;97886.19;5032822;28;20227;-81
2023/07/27 03:39:06;;;;;;;3.10;2.77;;;;;;;13.54;100.00;97886.06;5032513;28;20232;-81
2023/07/27 03:41:33;;;;;;;3.17;2.83;;;;;;;13.57;100.00;97877.84;5032621;28;20216;-81
2023/07/27 03:43:59;;;;;;;4.80;2.90;;;;;;;13.61;100.00;97876.59;5032462;28;20209;-81
2023/07/27 03:46:27;;;;;;;3.53;2.90;;;;;;;13.63;100.00;97878.16;5032811;28;20212;-81
2023/07/27 03:48:54;;;;;;;3.73;3.13;;;;;;;13.70;100.00;97867.88;5032335;28;20216;-81
2023/07/27 03:51:21;;;;;;;4.40;3.20;;;;;;;13.67;100.00;97871.63;5032052;28;20210;-81
2023/07/27 03:53:47;;;;;;;3.43;3.00;;;;;;;13.65;100.00;97862.09;5032590;28;20203;-81
2023/07/27 03:56:14;;;;;;;4.53;3.17;;;;;;;13.66;100.00;97858.47;5032379;28;20222;-81
2023/07/27 03:58:40;;;;;;;4.87;2.93;;;;;;;13.60;100.00;97862.50;5032200;28;20208;-81
2023/07/27 04:01:07;;;;;;;3.00;2.60;;;;;;;13.57;100.00;97857.44;5031739;28;20215;-81
2023/07/27 04:03:35;;;;;;;3.20;2.90;;;;;;;13.53;100.00;97861.34;5032339;28;20247;-81
2023/07/27 04:06:02;;;;;;;3.00;2.67;;;;;;;13.54;100.00;97856.84;5032378;28;20215;-80
2023/07/27 04:08:28;;;;;;;3.50;3.03;;;;;;;13.58;100.00;97850.31;5032192;28;20239;-81
2023/07/27 04:10:55;;;;;;;4.27;2.67;;;;;;;13.60;100.00;97851.03;5031234;28;20620;-81
2023/07/27 04:13:21;;;;;;;3.20;2.90;;;;;;;13.61;100.00;97845.59;5032257;28;20213;-81
2023/07/27 04:15:48;;;;;;;3.93;2.93;;;;;;;13.73;100.00;97849.84;5032060;28;20670;-81
2023/07/27 04:18:14;;;;;;;3.60;2.90;;;;;;;13.77;100.00;97834.47;5031998;28;20215;-81
2023/07/27 04:20:42;;;;;;;2.90;2.50;;;;;;;13.82;100.00;97837.59;5031177;28;20228;-81
2023/07/27 04:23:09;;;;;;;6.17;2.90;;;;;;;13.80;100.00;97834.19;5031877;28;20250;-81
2023/07/27 04:25:35;;;;;;;3.13;2.70;;;;;;;13.78;100.00;97838.81;5031825;28;20208;-81
2023/07/27 04:28:02;;;;;;;3.07;2.60;;;;;;;13.77;100.00;97830.03;5032080;28;20207;-81
2023/07/27 04:30:28;;;;;;;2.73;2.40;;;;;;;13.79;100.00;97833.38;5031082;28;20322;-81
2023/07/27 04:32:54;;;;;;;3.70;2.67;;;;;;;13.81;100.00;97836.72;5032054;28;20204;-81
2023/07/27 04:35:21;;;;;;;4.43;2.97;;;;;;;13.86;100.00;97831.00;5032292;28;20212;-81
2023/07/27 04:37:49;;;;;;;2.60;2.40;;;;;;;13.90;100.00;97829.78;5031844;28;20216;-81
2023/07/27 04:40:17;;;;;;;3.13;2.80;;;;;;;13.88;100.00;97827.25;5031324;28;20243;-81
2023/07/27 04:42:44;;;;;;;2.60;2.40;;;;;;;13.90;100.00;97830.63;5031890;28;20229;-80
2023/07/27 04:45:11;;;;;;;5.27;2.60;;;;;;;13.96;100.00;97829.25;5031622;28;20223;-81
2023/07/27 04:47:37;;;;;;;3.33;2.57;;;;;;;13.96;100.00;97823.94;5031626;28;20220;-81
2023/07/27 04:50:05;;;;;;;3.43;2.80;;;;;;;13.98;100.00;97828.16;5030676;28;20236;-80
2023/07/27 04:52:31;;;;;;;3.53;2.50;;;;;;;14.03;100.00;97817.97;5031275;28;20204;-82
2023/07/27 04:54:59;;;;;;;3.40;2.70;;;;;;;14.14;100.00;97824.97;5031572;28;20572;-81
2023/07/27 04:57:26;;;;;;;4.17;2.87;;;;;;;14.16;100.00;97820.34;5031393;28;20208;-82
2023/07/27 04:59:52;;;;;;;3.23;2.73;;;;;;;14.21;99.71;97818.19;5030479;28;20236;-81
2023/07/27 05:02:18;;;;;;;3.30;2.80;;;;;;;14.26;100.00;97821.28;5031222;28;20974;-81
2023/07/27 05:04:45;;;;;;;3.00;2.70;;;;;;;14.32;100.00;97816.25;5031431;28;20214;-80
2023/07/27 05:07:12;;;;;;;3.73;2.93;;;;;;;14.42;99.86;97825.06;5031227;28;20295;-80
2023/07/27 05:09:38;;;;;;;9.07;3.83;;;;;;;14.48;98.84;97824.53;5048737;22;20228;-82
2023/07/27 05:12:07;;;;;;;3.53;2.50;;;;;;;14.57;98.23;97814.88;5051541;28;20216;-82
2023/07/27 05:14:33;;;;;;;4.37;3.07;;;;;;;14.61;98.03;97816.31;5052046;28;20204;-82
2023/07/27 05:17:00;;;;;;;2.80;2.50;;;;;;;14.66;97.80;97824.72;5051346;28;20208;-82
2023/07/27 05:19:26;;;;;;;4.03;2.47;;;;;;;14.70;96.98;97826.09;5053801;28;20237;-81
2023/07/27 05:21:53;;;;;;;4.13;3.07;;;;;;;14.76;96.66;97817.56;5061176;28;20225;-81
2023/07/27 05:24:19;;;;;;;3.83;2.67;;;;;;;14.85;96.52;97830.88;5061252;28;20230;-82
2023/07/27 05:26:46;;;;;;;4.53;3.13;;;;;;;14.83;95.78;97816.03;5058709;28;20218;-82
2023/07/27 05:29:13;;;;;;;5.03;3.40;;;;;;;14.89;96.38;97828.75;5050747;28;20214;-82
2023/07/27 05:31:40;;;;;;;5.07;3.10;;;;;;;14.93;95.41;97816.88;5051458;28;20211;-82
2023/07/27 05:34:08;;;;;;;3.97;3.07;;;;;;;14.93;95.59;97811.56;5051948;28;20254;-82
2023/07/27 05:36:35;;;;;;;5.13;3.50;;;;;;;15.01;95.40;97807.22;5051669;28;20215;-83
2023/07/27 05:39:01;;;;;;;4.10;2.97;;;;;;;15.12;95.18;97806.22;5051288;28;20218;-82
2023/07/27 05:41:28;;;;;;;5.63;3.40;;;;;;;15.21;94.90;97806.19;5050901;28;20235;-82
2023/07/27 05:43:54;;;;;;;3.67;3.27;;;;;;;15.28;94.63;97809.16;5051348;28;20602;-82
2023/07/27 05:46:22;;;;;;;3.77;2.97;;;;;;;15.36;93.78;97798.63;5051497;28;20203;-82
2023/07/27 05:48:48;;;;;;;3.47;2.97;;;;;;;15.49;92.10;97788.50;5051248;28;20239;-82
2023/07/27 05:51:15;;;;;;;5.77;2.93;;;;;;;15.58;91.52;97785.81;5050696;28;20235;-83
2023/07/27 05:53:41;;;;;;;5.90;2.90;;;;;;;15.61;90.28;97782.03;5051340;28;20207;-84
2023/07/27 05:56:08;;;;;;;3.43;2.70;;;;;;;15.69;89.29;97787.47;5051317;28;20586;-82
2023/07/27 05:58:35;;;;;;;4.20;2.80;;;;;;;15.76;88.31;97785.91;5051337;28;20683;-82
2023/07/27 06:01:03;;;;;;;3.87;2.57;;;;;;;15.82;88.54;97785.31;5050368;28;20232;-82
2023/07/27 06:03:31;;;;;;;4.40;2.80;;;;;;;15.87;89.15;97788.38;5050909;28;20327;-82
2023/07/27 06:05:59;;;;;;;3.93;2.63;;;;;;;15.84;88.87;97792.19;5051384;28;20216;-77
2023/07/27 06:08:25;;;;;;;3.10;2.60;;;;;;;15.89;88.72;97791.75;5051428;28;20201;-78
2023/07/27 06:11:00;;;;;;;4.37;2.87;;;;;;;15.90;89.02;97798.75;5050134;28;20236;-82
2023/07/27 06:13:26;;;;;;;3.43;2.63;;;;;;;15.95;89.56;97788.50;5050234;28;20199;-74
2023/07/27 06:15:53;;;;;;;6.47;2.70;;;;;;;16.08;88.81;97789.81;5050445;28;20212;-76
2023/07/27 06:18:19;;;;;;;3.43;2.77;;;;;;;16.19;88.13;97793.13;5050732;28;20211;-77
2023/07/27 06:20:47;;;;;;;4.07;2.87;;;;;;;16.27;87.04;97784.41;5049962;28;20239;-78
2023/07/27 06:23:14;;;;;;;3.27;2.57;;;;;;;16.37;87.01;97794.00;5050831;28;20239;-78
2023/07/27 06:25:42;;;;;;;4.33;2.67;;;;;;;16.42;87.04;97797.09;5050898;28;20223;-77
2023/07/27 06:28:09;;;;;;;4.30;2.47;;;;;;;16.55;85.72;97786.91;5050729;28;20211;-77
2023/07/27 06:30:36;;;;;;;5.00;2.77;;;;;;;16.75;85.27;97785.75;5052453;28;20315;-76
2023/07/27 06:33:03;;;;;;;5.47;2.50;;;;;;;17.00;85.30;97793.00;5054506;28;20200;-78
2023/07/27 06:35:29;;;;;;;3.30;2.50;;;;;;;17.35;84.34;97784.94;5054462;28;20208;-77
2023/07/27 06:37:57;;;;;;;3.07;2.77;;;;;;;17.70;81.89;97776.84;5054174;28;20215;-77
2023/07/27 06:40:24;;;;;;;5.30;3.07;;;;;;;18.05;79.65;97767.81;5053720;28;20232;-78
2023/07/27 06:42:50;;;;;;;5.40;2.53;;;;;;;18.32;78.55;97763.09;5053972;28;20208;-76
2023/07/27 06:45:17;;;;;;;3.00;2.23;;;;;;;18.44;78.19;97764.47;5054116;28;20285;-78
2023/07/27 06:47:43;;;;;;;4.27;2.60;;;;;;;18.43;76.84;97754.78;5054098;28;20208;-79
2023/07/27 06:50:10;;;;;;;3.40;2.27;;;;;;;18.46;77.67;97770.50;5053323;28;20722;-78
2023/07/27 06:52:37;;;;;;;3.97;2.37;;;;;;;18.40;77.21;97763.13;5054086;28;20215;-79
2023/07/27 06:55:06;;;;;;;3.83;2.30;;;;;;;18.30;77.39;97762.38;5053939;28;20712;-77
2023/07/27 06:57:33;;;;;;;2.63;1.90;;;;;;;18.36;78.28;97756.41;5053710;28;20212;-81
2023/07/27 06:59:59;;;;;;;4.00;2.43;;;;;;;18.42;78.40;97760.28;5053335;28;20232;-79
2023/07/27 07:02:26;;;;;;;4.93;2.30;;;;;;;18.46;78.30;97764.31;5053186;28;20325;-78
2023/07/27 07:04:53;;;;;;;2.33;2.10;;;;;;;18.47;77.54;97761.47;5051443;28;20235;-79
2023/07/27 07:07:19;;;;;;;3.83;2.23;;;;;;;18.60;76.50;97753.78;5050906;28;20295;-77
2023/07/27 07:09:46;;;;;;;3.73;2.57;;;;;;;18.66;77.36;97763.03;5049992;28;20490;-77
2023/07/27 07:12:14;;;;;;;3.70;2.10;;;;;;;18.66;78.20;97761.16;5051971;28;20297;-77
2023/07/27 07:14:41;;;;;;;2.23;2.00;;;;;;;18.68;78.27;97764.53;5053375;28;20212;-78
2023/07/27 07:17:07;;;;;;;4.13;2.03;;;;;;;18.64;76.88;97752.47;5051881;28;20216;-78
2023/07/27 07:19:34;;;;;;;4.00;1.90;;;;;;;18.64;76.10;97748.94;5049803;28;20234;-76
2023/07/27 07:22:00;;;;;;;2.27;2.03;;;;;;;18.70;75.91;97738.44;5050393;28;20219;-76
2023/07/27 07:24:27;;;;;;;3.40;2.07;;;;;;;18.80;75.08;97736.44;5050414;28;20703;-79
2023/07/27 07:26:53;;;;;;;2.77;2.00;;;;;;;18.71;75.40;97742.78;5052734;28;20218;-75
2023/07/27 07:29:21;;;;;;;2.53;2.13;;;;;;;18.78;75.62;97740.28;5052251;28;20737;-75
2023/07/27 07:31:48;;;;;;;3.13;2.08;;;;;;;18.74;76.09;97745.13;5052919;28;20446;-79
2023/07/27 07:34:14;;;;;;;2.50;2.10;;;;;;;18.68;76.60;97743.13;5050222;28;20237;-79
2023/07/27 07:36:41;;;;;;;3.40;1.90;;;;;;;18.67;77.44;97740.59;5052160;28;20212;-78
2023/07/27 07:39:07;;;;;;;2.00;1.83;;;;;;;18.73;76.68;97735.44;5051898;28;20280;-78
2023/07/27 07:41:34;;;;;;;2.47;1.80;;;;;;;18.74;76.34;97733.56;5051329;28;20208;-78
2023/07/27 07:44:01;;;;;;;2.60;2.03;;;;;;;18.78;75.97;97722.34;5051580;28;20233;-76
2023/07/27 07:46:29;;;;;;;4.37;2.20;;;;;;;18.80;76.40;97725.72;5052003;28;20212;-75
2023/07/27 07:48:57;;;;;;;4.17;1.97;;;;;;;18.76;76.84;97735.09;5051280;28;20208;-75
2023/07/27 07:51:23;;;;;;;2.00;1.90;;;;;;;18.73;77.57;97735.44;5051343;28;20231;-78
2023/07/27 07:53:50;;;;;;;2.10;1.80;;;;;;;18.68;77.32;97732.41;5051465;28;20202;-81
2023/07/27 07:56:17;;;;;;;3.50;1.80;;;;;;;18.58;77.87;97734.38;5051574;28;20216;-80
2023/07/27 07:58:45;;;;;;;2.40;1.93;;;;;;;18.59;79.31;97746.75;5052115;28;20694;-81
2023/07/27 08:01:11;;;;;;;2.23;2.03;;;;;;;18.53;80.66;97749.28;5050981;28;20228;-82
2023/07/27 08:03:39;;;;;;;2.43;1.97;;;;;;;18.35;82.96;97757.41;5051355;28;20232;-81
2023/07/27 08:06:06;;;;;;;3.17;2.37;;;;;;;18.19;85.17;97754.69;5051830;28;20645;-82
2023/07/27 08:08:33;;;;;;;2.47;2.23;;;;;;;18.08;87.54;97760.31;5051554;28;20666;-79
2023/07/27 08:11:03;;;;;;;2.53;2.03;;;;;;;17.85;90.53;97755.72;5050167;28;20244;-81
2023/07/27 08:13:30;;;;;;;2.37;2.17;;;;;;;17.65;92.81;97759.59;5051407;28;20254;-81
2023/07/27 08:15:57;;;;;;;2.57;2.30;;;;;;;17.44;95.24;97749.28;5050102;28;20212;-81
2023/07/27 08:18:23;;;;;;;2.40;2.20;;;;;;;17.28;97.52;97754.50;5050571;28;20214;-81
2023/07/27 08:21:01;;;;;;;2.43;2.20;;;;;;;17.14;100.00;97751.56;5047518;28;20251;-81
2023/07/27 08:23:28;;;;;;;2.50;2.30;;;;;;;17.03;100.00;97749.97;5049247;28;20274;-76
2023/07/27 08:25:55;;;;;;;3.53;2.70;;;;;;;16.97;100.00;97750.59;5050651;28;20223;-76
2023/07/27 08:28:22;;;;;;;2.90;2.30;;;;;;;16.91;100.00;97751.22;5052341;28;20215;-75
2023/07/27 08:30:49;;;;;;;2.90;2.33;;;;;;;16.93;100.00;97743.03;5051343;28;20228;-77
2023/07/27 08:33:15;;;;;;;2.30;2.10;;;;;;;16.96;100.00;97743.56;5051719;28;20219;-76
2023/07/27 08:35:42;;;;;;;2.63;2.30;;;;;;;17.04;99.37;97735.63;5051888;28;20223;-76
2023/07/27 08:38:10;;;;;;;2.70;2.10;;;;;;;17.10;99.59;97736.81;5052139;28;20214;-76
2023/07/27 08:40:36;;;;;;;2.70;2.30;;;;;;;17.16;100.00;97729.03;5051170;28;20232;-77
2023/07/27 08:43:03;;;;;;;2.70;2.50;;;;;;;17.21;99.55;97718.75;5052096;28;20204;-82
2023/07/27 08:45:30;;;;;;;3.00;2.37;;;;;;;17.21;99.29;97721.41;5051921;28;20270;-75
2023/07/27 08:47:57;;;;;;;2.73;2.20;;;;;;;17.20;99.67;97714.38;5051793;28;20208;-80
2023/07/27 08:50:24;;;;;;;3.43;2.17;;;;;;;17.19;99.01;97709.22;5051340;28;20224;-79
2023/07/27 08:52:51;;;;;;;2.90;2.50;;;;;;;17.20;98.64;97709.03;5051354;28;20208;-79
2023/07/27 08:55:19;;;;;;;3.17;2.40;;;;;;;17.28;98.57;97706.44;5051896;28;20686;-79
2023/07/27 08:57:45;;;;;;;2.50;2.17;;;;;;;17.40;98.37;97701.69;5052084;28;20235;-79
2023/07/27 09:00:13;;;;;;;4.30;2.23;;;;;;;17.43;93.90;97688.84;5051130;28;20710;-79
2023/07/27 09:02:40;;;;;;;2.50;2.20;;;;;;;17.42;93.83;97681.81;5051862;28;20204;-78
2023/07/27 09:05:07;;;;;;;3.00;2.20;;;;;;;17.38;93.15;97685.78;5051929;28;20232;-78
2023/07/27 09:07:33;;;;;;;2.93;2.10;;;;;;;17.38;93.25;97690.31;5052180;28;20212;-79
2023/07/27 09:10:00;;;;;;;4.10;2.00;;;;;;;17.38;88.58;97679.63;5051281;28;20265;-79
2023/07/27 09:12:27;;;;;;;3.60;2.27;;;;;;;17.39;91.24;97675.97;5052705;28;20247;-77
2023/07/27 09:14:55;;;;;;;3.77;2.37;;;;;;;17.44;93.16;97687.84;5058076;28;20295;-77
2023/07/27 09:17:23;;;;;;;3.50;1.90;;;;;;;17.47;91.01;97684.00;5056594;28;20204;-74
2023/07/27 09:19:51;;;;;;;3.33;2.30;;;;;;;17.42;90.63;97689.84;5054324;28;20238;-74
2023/07/27 09:22:17;;;;;;;4.47;2.40;;;;;;;17.29;91.07;97691.22;5053590;28;20212;-74
2023/07/27 09:24:45;;;;;;;4.13;2.37;;;;;;;17.14;92.18;97698.97;5052496;28;20231;-75
2023/07/27 09:27:14;;;;;;;4.30;2.53;;;;;;;17.00;95.74;97707.56;5051355;28;20207;-75
2023/07/27 09:29:42;;;;;;;4.17;2.40;;;;;;;16.89;98.01;97710.47;5050371;28;20238;-75
2023/07/27 09:32:10;;;;;;;3.23;2.70;;;;;;;16.83;100.00;97716.44;5051200;28;20208;-75
2023/07/27 09:34:37;;;;;;;4.30;3.10;;;;;;;16.77;100.00;97717.03;5051161;28;20689;-76
2023/07/27 09:37:06;;;;;;;3.53;2.60;;;;;;;16.77;100.00;97727.72;5051371;28;20208;-75
2023/07/27 09:39:34;;;;;;;3.17;2.50;;;;;;;16.76;100.00;97726.06;5050535;28;20239;-76
2023/07/27 09:42:01;;;;;;;4.80;2.80;;;;;;;16.73;100.00;97721.03;5050951;28;20243;-75
2023/07/27 09:44:27;;;;;;;4.30;2.57;;;;;;;16.78;100.00;97716.06;5051313;28;20232;-75
2023/07/27 09:46:55;;;;;;;2.60;2.20;;;;;;;16.82;100.00;97714.75;5051216;28;20212;-76
2023/07/27 09:49:22;;;;;;;2.90;2.63;;;;;;;16.85;100.00;97717.13;5050385;28;20231;-75
2023/07/27 09:51:50;;;;;;;3.03;2.43;;;;;;;16.86;100.00;97709.94;5050783;28;20204;-75
2023/07/27 09:54:18;;;;;;;3.10;2.50;;;;;;;16.89;100.00;97705.13;5050944;28;20214;-75
2023/07/27 09:56:45;;;;;;;3.00;2.70;;;;;;;16.95;100.00;97709.84;5050914;28;20211;-75
2023/07/27 09:59:14;;;;;;;3.00;2.70;;;;;;;17.08;100.00;97690.75;5050225;28;20689;-75
2023/07/27 10:01:41;;;;;;;2.97;2.60;;;;;;;17.14;100.00;97690.13;5051209;28;20208;-75
2023/07/27 10:04:09;;;;;;;3.00;2.43;;;;;;;17.25;100.00;97701.38;5053246;28;20232;-76
2023/07/27 10:06:36;;;;;;;4.70;2.50;;;;;;;17.41;100.00;97690.00;5054986;28;20284;-76
2023/07/27 10:09:16;;;;;;;3.50;2.47;;;;;;;17.50;100.00;97689.88;5054648;28;20208;-75
2023/07/27 10:11:53;;;;;;;3.97;2.60;;;;;;;17.57;100.00;97685.59;5054762;28;20601;-74
2023/07/27 10:14:20;;;;;;;3.87;2.47;;;;;;;17.59;100.00;97678.25;5054960;28;20212;-75
2023/07/27 10:17:01;;;;;;;3.07;2.40;;;;;;;17.59;100.00;97677.38;5054724;28;20251;-75
2023/07/27 10:19:39;;;;;;;2.90;2.57;;;;;;;17.57;99.85;97680.25;5053815;28;20282;-76
2023/07/27 10:22:08;;;;;;;2.33;2.13;;;;;;;17.63;97.81;97673.41;5054731;28;20230;-75
2023/07/27 10:24:47;;;;;;;3.33;2.20;;;;;;;17.70;96.22;97664.59;5054689;28;20232;-75
2023/07/27 10:27:14;;;;;;;2.70;2.30;;;;;;;17.74;96.25;97670.44;5054797;28;20216;-76
2023/07/27 10:29:46;;;;;;;2.30;2.10;;;;;;;17.82;97.14;97674.00;5053843;28;20636;-78
2023/07/27 10:32:13;;;;;;;2.97;2.33;;;;;;;17.92;97.60;97672.00;5054597;28;20215;-83
2023/07/27 10:34:41;;;;;;;2.70;2.30;;;;;;;17.99;98.84;97667.66;5054768;28;20215;-82
2023/07/27 10:37:11;;;;;;;2.60;2.30;;;;;;;18.11;98.64;97669.03;5054294;28;20314;-82
2023/07/27 10:39:47;;;;;;;4.10;2.40;;;;;;;18.26;96.03;97659.38;5053680;28;20224;-79
2023/07/27 10:42:16;;;;;;;3.10;2.40;;;;;;;18.43;95.53;97662.94;5054559;28;20207;-80
2023/07/27 10:44:44;;;;;;;3.73;2.10;;;;;;;18.58;94.27;97656.78;5053983;28;20778;-80
2023/07/27 10:47:12;;;;;;;2.20;2.00;;;;;;;18.83;88.85;97642.38;5054145;28;20212;-83
2023/07/27 10:49:40;;;;;;;3.10;2.37;;;;;;;19.05;88.54;97641.69;5053568;28;20238;-81
2023/07/27 10:52:09;;;;;;;3.37;2.30;;;;;;;19.24;88.33;97627.94;5054142;28;20277;-78
2023/07/27 10:54:39;;;;;;;2.53;2.13;;;;;;;19.37;87.10;97622.03;5054185;28;20684;-80
2023/07/27 10:57:07;;;;;;;3.00;2.47;;;;;;;19.55;86.20;97623.47;5053922;28;20262;-80
2023/07/27 10:59:37;;;;;;;3.43;2.40;;;;;;;19.62;85.09;97610.22;5053550;28;20224;-80
2023/07/27 11:02:06;;;;;;;2.57;2.10;;;;;;;19.76;84.90;97612.16;5054233;28;20238;-81
2023/07/27 11:04:34;;;;;;;3.23;2.20;;;;;;;19.90;85.02;97609.56;5053785;28;20224;-78
2023/07/27 11:07:00;;;;;;;3.67;2.37;;;;;;;20.00;84.99;97612.84;5053881;28;20253;-79
2023/07/27 11:12:05;;;;;;;3.33;2.33;;;;;;;20.21;84.34;97607.72;5051849;28;20219;-81
2023/07/27 11:14:32;;;;;;;3.87;2.30;;;;;;;20.33;82.13;97595.56;5053270;28;20208;-82
2023/07/27 11:16:59;;;;;;;3.30;2.30;;;;;;;20.48;77.70;97572.25;5052932;28;20262;-81
2023/07/27 11:19:26;;;;;;;3.30;2.33;;;;;;;20.59;78.05;97577.22;5052508;28;20589;-81
2023/07/27 11:21:54;;;;;;;2.80;2.40;;;;;;;20.52;73.43;97552.09;5052946;28;20228;-81
2023/07/27 11:24:21;;;;;;;2.23;2.03;;;;;;;20.62;73.56;97558.06;5052832;28;20212;-81
2023/07/27 11:26:47;;;;;;;2.83;1.90;;;;;;;20.63;74.65;97567.78;5053360;28;20207;-81
2023/07/27 11:29:16;;;;;;;2.53;2.33;;;;;;;20.64;73.62;97560.53;5052385;28;20207;-81
2023/07/27 11:31:53;;;;;;;2.97;1.90;;;;;;;20.62;75.44;97563.44;5052933;28;20231;-81
2023/07/27 11:34:22;;;;;;;2.03;1.83;;;;;;;20.78;73.90;97549.84;5053001;28;20680;-81